sensor_id;sensor_type;location;lat;lon;timestamp;pressure;altitude;pressure_sealevel;temperature;humidity
59608;BME280;45426;44.726;10.390;2022-07-01T00:00:19;100140.75;;;24.40;100.00
59608;BME280;45426;44.726;10.390;2022-07-01T00:02:45;100142.06;;;24.69;100.00
59608;BME280;45426;44.726;10.390;2022-07-01T00:05:10;100139.47;;;24.45;100.00
59608;BME280;45426;44.726;10.390;2022-07-01T00:07:36;100142.94;;;24.33;100.00
59608;BME280;45426;44.726;10.390;2022-07-01T00:10:02;100134.13;;;24.54;100.00
59608;BME280;45426;44.726;10.390;2022-07-01T00:12:28;100146.66;;;24.10;100.00
59608;BME280;45426;44.726;10.390;2022-07-01T00:14:53;100147.59;;;24.03;100.00
59608;BME280;45426;44.726;10.390;2022-07-01T00:17:18;100140.50;;;24.02;100.00
59608;BME280;45426;44.726;10.390;2022-07-01T00:19:44;100143.44;;;23.75;100.00
59608;BME280;45426;44.726;10.390;2022-07-01T00:22:09;100137.00;;;23.61;100.00
59608;BME280;45426;44.726;10.390;2022-07-01T00:24:35;100135.03;;;23.98;100.00
59608;BME280;45426;44.726;10.390;2022-07-01T00:27:00;100132.84;;;23.90;100.00
59608;BME280;45426;44.726;10.390;2022-07-01T00:29:26;100126.03;;;23.74;100.00
59608;BME280;45426;44.726;10.390;2022-07-01T00:31:51;100134.72;;;24.13;100.00
59608;BME280;45426;44.726;10.390;2022-07-01T00:34:16;100131.75;;;24.36;100.00
59608;BME280;45426;44.726;10.390;2022-07-01T00:36:42;100133.72;;;24.03;100.00
59608;BME280;45426;44.726;10.390;2022-07-01T00:39:07;100131.72;;;23.67;100.00
59608;BME280;45426;44.726;10.390;2022-07-01T00:41:33;100121.56;;;23.97;100.00
59608;BME280;45426;44.726;10.390;2022-07-01T00:43:58;100123.16;;;23.98;100.00
59608;BME280;45426;44.726;10.390;2022-07-01T00:46:24;100123.31;;;23.71;100.00
59608;BME280;45426;44.726;10.390;2022-07-01T00:48:55;100135.78;;;23.02;100.00
59608;BME280;45426;44.726;10.390;2022-07-01T00:51:21;100130.22;;;23.02;100.00
59608;BME280;45426;44.726;10.390;2022-07-01T00:53:47;100134.69;;;22.96;100.00
59608;BME280;45426;44.726;10.390;2022-07-01T00:56:13;100124.28;;;23.04;100.00
59608;BME280;45426;44.726;10.390;2022-07-01T00:58:39;100127.19;;;23.17;100.00
59608;BME280;45426;44.726;10.390;2022-07-01T01:01:05;100131.75;;;24.03;100.00
59608;BME280;45426;44.726;10.390;2022-07-01T01:03:30;100134.16;;;24.01;100.00
59608;BME280;45426;44.726;10.390;2022-07-01T01:05:57;100138.16;;;24.00;100.00
59608;BME280;45426;44.726;10.390;2022-07-01T01:08:22;100149.00;;;23.15;100.00
59608;BME280;45426;44.726;10.390;2022-07-01T01:10:49;100146.34;;;22.64;100.00
59608;BME280;45426;44.726;10.390;2022-07-01T01:13:15;100144.81;;;22.59;100.00
59608;BME280;45426;44.726;10.390;2022-07-01T01:15:40;100147.97;;;22.07;100.00
59608;BME280;45426;44.726;10.390;2022-07-01T01:18:06;100141.34;;;22.55;100.00
59608;BME280;45426;44.726;10.390;2022-07-01T01:20:36;100140.22;;;23.20;100.00
59608;BME280;45426;44.726;10.390;2022-07-01T01:23:02;100135.00;;;23.62;100.00
59608;BME280;45426;44.726;10.390;2022-07-01T01:25:30;100131.38;;;23.65;100.00
59608;BME280;45426;44.726;10.390;2022-07-01T01:27:55;100128.09;;;23.70;100.00
59608;BME280;45426;44.726;10.390;2022-07-01T01:30:21;100137.25;;;23.67;100.00
59608;BME280;45426;44.726;10.390;2022-07-01T01:32:46;100143.19;;;23.29;100.00
59608;BME280;45426;44.726;10.390;2022-07-01T01:35:12;100146.88;;;23.42;100.00
59608;BME280;45426;44.726;10.390;2022-07-01T01:37:38;100150.88;;;23.21;100.00
59608;BME280;45426;44.726;10.390;2022-07-01T01:40:04;100153.91;;;22.83;100.00
59608;BME280;45426;44.726;10.390;2022-07-01T01:42:30;100144.81;;;22.59;100.00
59608;BME280;45426;44.726;10.390;2022-07-01T01:44:56;100147.13;;;22.41;100.00
59608;BME280;45426;44.726;10.390;2022-07-01T01:47:22;100145.28;;;22.58;100.00
59608;BME280;45426;44.726;10.390;2022-07-01T01:49:47;100148.34;;;22.63;100.00
59608;BME280;45426;44.726;10.390;2022-07-01T01:52:12;100151.69;;;22.75;100.00
59608;BME280;45426;44.726;10.390;2022-07-01T01:54:38;100149.69;;;22.99;100.00
59608;BME280;45426;44.726;10.390;2022-07-01T01:57:04;100152.00;;;23.00;100.00
59608;BME280;45426;44.726;10.390;2022-07-01T01:59:30;100148.59;;;22.93;100.00
59608;BME280;45426;44.726;10.390;2022-07-01T02:01:55;100164.66;;;23.25;100.00
59608;BME280;45426;44.726;10.390;2022-07-01T02:04:21;100150.94;;;23.38;100.00
59608;BME280;45426;44.726;10.390;2022-07-01T02:06:49;100151.94;;;23.28;100.00
59608;BME280;45426;44.726;10.390;2022-07-01T02:09:14;100160.84;;;22.95;100.00
59608;BME280;45426;44.726;10.390;2022-07-01T02:11:40;100159.75;;;23.13;100.00
59608;BME280;45426;44.726;10.390;2022-07-01T02:14:05;100149.47;;;22.90;100.00
59608;BME280;45426;44.726;10.390;2022-07-01T02:16:31;100151.06;;;23.11;100.00
59608;BME280;45426;44.726;10.390;2022-07-01T02:18:57;100150.06;;;23.21;100.00
59608;BME280;45426;44.726;10.390;2022-07-01T02:21:22;100148.94;;;22.95;100.00
59608;BME280;45426;44.726;10.390;2022-07-01T02:23:47;100150.72;;;22.85;100.00
59608;BME280;45426;44.726;10.390;2022-07-01T02:26:13;100143.47;;;22.20;100.00
59608;BME280;45426;44.726;10.390;2022-07-01T02:28:39;100142.16;;;22.28;100.00
59608;BME280;45426;44.726;10.390;2022-07-01T02:31:04;100137.56;;;22.18;100.00
59608;BME280;45426;44.726;10.390;2022-07-01T02:33:29;100131.44;;;21.76;100.00
59608;BME280;45426;44.726;10.390;2022-07-01T02:35:55;100134.22;;;21.42;100.00
59608;BME280;45426;44.726;10.390;2022-07-01T02:38:21;100142.84;;;21.13;100.00
59608;BME280;45426;44.726;10.390;2022-07-01T02:40:46;100156.91;;;21.26;100.00
59608;BME280;45426;44.726;10.390;2022-07-01T02:43:12;100168.84;;;21.54;100.00
59608;BME280;45426;44.726;10.390;2022-07-01T02:45:37;100165.44;;;21.73;100.00
59608;BME280;45426;44.726;10.390;2022-07-01T02:48:03;100171.84;;;21.97;100.00
59608;BME280;45426;44.726;10.390;2022-07-01T02:50:29;100184.66;;;22.42;100.00
59608;BME280;45426;44.726;10.390;2022-07-01T02:52:54;100184.66;;;22.42;100.00
59608;BME280;45426;44.726;10.390;2022-07-01T02:55:20;100178.13;;;22.79;100.00
59608;BME280;45426;44.726;10.390;2022-07-01T02:57:46;100178.00;;;22.86;100.00
59608;BME280;45426;44.726;10.390;2022-07-01T03:00:15;100178.53;;;22.78;100.00
59608;BME280;45426;44.726;10.390;2022-07-01T03:02:41;100180.94;;;22.76;100.00
59608;BME280;45426;44.726;10.390;2022-07-01T03:05:07;100192.03;;;22.76;100.00
59608;BME280;45426;44.726;10.390;2022-07-01T03:07:32;100191.97;;;22.79;100.00
59608;BME280;45426;44.726;10.390;2022-07-01T03:10:00;100197.63;;;22.72;100.00
59608;BME280;45426;44.726;10.390;2022-07-01T03:12:25;100193.41;;;22.87;100.00
59608;BME280;45426;44.726;10.390;2022-07-01T03:14:57;100193.59;;;22.77;100.00
59608;BME280;45426;44.726;10.390;2022-07-01T03:17:27;100194.91;;;22.92;100.00
59608;BME280;45426;44.726;10.390;2022-07-01T03:19:54;100190.56;;;22.91;100.00
59608;BME280;45426;44.726;10.390;2022-07-01T03:22:21;100183.97;;;23.09;100.00
59608;BME280;45426;44.726;10.390;2022-07-01T03:24:47;100186.78;;;22.58;100.00
59608;BME280;45426;44.726;10.390;2022-07-01T03:27:14;100186.75;;;22.61;100.00
59608;BME280;45426;44.726;10.390;2022-07-01T03:29:40;100184.06;;;22.00;100.00
59608;BME280;45426;44.726;10.390;2022-07-01T03:32:05;100184.34;;;22.09;100.00
59608;BME280;45426;44.726;10.390;2022-07-01T03:34:31;100191.66;;;22.50;100.00
59608;BME280;45426;44.726;10.390;2022-07-01T03:36:56;100185.69;;;22.75;100.00
59608;BME280;45426;44.726;10.390;2022-07-01T03:39:22;100183.66;;;22.79;100.00
59608;BME280;45426;44.726;10.390;2022-07-01T03:41:47;100177.72;;;21.99;100.00
59608;BME280;45426;44.726;10.390;2022-07-01T03:44:12;100176.28;;;21.60;100.00
59608;BME280;45426;44.726;10.390;2022-07-01T03:46:38;100178.16;;;21.67;100.00
59608;BME280;45426;44.726;10.390;2022-07-01T03:49:03;100175.19;;;22.12;100.00
59608;BME280;45426;44.726;10.390;2022-07-01T03:51:29;100178.97;;;22.25;100.00
59608;BME280;45426;44.726;10.390;2022-07-01T03:53:55;100176.53;;;21.35;100.00
59608;BME280;45426;44.726;10.390;2022-07-01T03:56:39;100173.03;;;22.27;100.00
59608;BME280;45426;44.726;10.390;2022-07-01T03:59:04;100182.31;;;22.40;100.00
59608;BME280;45426;44.726;10.390;2022-07-01T04:01:30;100180.75;;;21.81;100.00
59608;BME280;45426;44.726;10.390;2022-07-01T04:03:55;100171.59;;;22.15;100.00
59608;BME280;45426;44.726;10.390;2022-07-01T04:06:21;100172.72;;;21.60;100.00
59608;BME280;45426;44.726;10.390;2022-07-01T04:08:47;100179.22;;;21.42;100.00
59608;BME280;45426;44.726;10.390;2022-07-01T04:11:13;100183.34;;;21.27;100.00
59608;BME280;45426;44.726;10.390;2022-07-01T04:13:39;100175.13;;;21.20;100.00
59608;BME280;45426;44.726;10.390;2022-07-01T04:16:05;100172.28;;;21.27;100.00
59608;BME280;45426;44.726;10.390;2022-07-01T04:18:30;100173.19;;;21.17;100.00
59608;BME280;45426;44.726;10.390;2022-07-01T04:20:57;100174.63;;;21.66;100.00
59608;BME280;45426;44.726;10.390;2022-07-01T04:23:41;100164.16;;;22.08;100.00
59608;BME280;45426;44.726;10.390;2022-07-01T04:26:07;100161.66;;;21.90;100.00
59608;BME280;45426;44.726;10.390;2022-07-01T04:28:32;100156.69;;;22.09;100.00
59608;BME280;45426;44.726;10.390;2022-07-01T04:30:58;100145.22;;;21.80;100.00
59608;BME280;45426;44.726;10.390;2022-07-01T04:33:24;100152.69;;;21.52;100.00
59608;BME280;45426;44.726;10.390;2022-07-01T04:35:50;100164.47;;;21.56;100.00
59608;BME280;45426;44.726;10.390;2022-07-01T04:38:15;100155.59;;;21.72;100.00
59608;BME280;45426;44.726;10.390;2022-07-01T04:40:41;100151.97;;;21.75;100.00
59608;BME280;45426;44.726;10.390;2022-07-01T04:43:26;100159.03;;;21.49;100.00
59608;BME280;45426;44.726;10.390;2022-07-01T04:45:51;100163.03;;;21.75;100.00
59608;BME280;45426;44.726;10.390;2022-07-01T04:48:17;100169.91;;;22.21;100.00
59608;BME280;45426;44.726;10.390;2022-07-01T04:50:42;100167.94;;;22.49;100.00
59608;BME280;45426;44.726;10.390;2022-07-01T04:53:07;100169.13;;;22.21;100.00
59608;BME280;45426;44.726;10.390;2022-07-01T04:55:33;100158.22;;;22.10;100.00
59608;BME280;45426;44.726;10.390;2022-07-01T04:57:58;100158.03;;;22.24;100.00
59608;BME280;45426;44.726;10.390;2022-07-01T05:00:24;100152.97;;;21.92;100.00
59608;BME280;45426;44.726;10.390;2022-07-01T05:02:49;100157.75;;;22.15;100.00
59608;BME280;45426;44.726;10.390;2022-07-01T05:05:14;100152.53;;;22.21;100.00
59608;BME280;45426;44.726;10.390;2022-07-01T05:07:40;100155.53;;;22.57;100.00
59608;BME280;45426;44.726;10.390;2022-07-01T05:10:05;100163.00;;;22.60;100.00
59608;BME280;45426;44.726;10.390;2022-07-01T05:12:31;100152.66;;;22.64;100.00
59608;BME280;45426;44.726;10.390;2022-07-01T05:14:56;100148.59;;;23.36;100.00
59608;BME280;45426;44.726;10.390;2022-07-01T05:17:22;100150.22;;;23.54;100.00
59608;BME280;45426;44.726;10.390;2022-07-01T05:20:08;100161.75;;;23.12;100.00
59608;BME280;45426;44.726;10.390;2022-07-01T05:22:52;100149.59;;;23.46;100.00
59608;BME280;45426;44.726;10.390;2022-07-01T05:25:18;100146.59;;;23.57;100.00
59608;BME280;45426;44.726;10.390;2022-07-01T05:27:44;100140.47;;;23.65;100.00
59608;BME280;45426;44.726;10.390;2022-07-01T05:30:10;100136.84;;;24.21;100.00
59608;BME280;45426;44.726;10.390;2022-07-01T05:32:35;100131.94;;;24.62;100.00
59608;BME280;45426;44.726;10.390;2022-07-01T05:35:00;100133.69;;;24.56;100.00
59608;BME280;45426;44.726;10.390;2022-07-01T05:37:26;100128.28;;;25.66;100.00
59608;BME280;45426;44.726;10.390;2022-07-01T05:39:51;100129.72;;;27.61;100.00
59608;BME280;45426;44.726;10.390;2022-07-01T05:42:17;100132.28;;;29.23;100.00
59608;BME280;45426;44.726;10.390;2022-07-01T05:44:42;100126.31;;;34.32;84.95
59608;BME280;45426;44.726;10.390;2022-07-01T05:47:07;100129.53;;;29.57;100.00
59608;BME280;45426;44.726;10.390;2022-07-01T05:49:34;100137.50;;;27.66;100.00
59608;BME280;45426;44.726;10.390;2022-07-01T05:52:01;100135.81;;;27.25;100.00
59608;BME280;45426;44.726;10.390;2022-07-01T05:54:26;100128.22;;;26.21;100.00
59608;BME280;45426;44.726;10.390;2022-07-01T05:56:52;100134.00;;;26.39;100.00
59608;BME280;45426;44.726;10.390;2022-07-01T05:59:17;100134.31;;;26.41;100.00
59608;BME280;45426;44.726;10.390;2022-07-01T06:01:43;100135.47;;;27.01;100.00
59608;BME280;45426;44.726;10.390;2022-07-01T06:04:09;100134.19;;;27.27;100.00
59608;BME280;45426;44.726;10.390;2022-07-01T06:06:34;100134.06;;;27.62;100.00
59608;BME280;45426;44.726;10.390;2022-07-01T06:08:59;100114.47;;;28.16;100.00
59608;BME280;45426;44.726;10.390;2022-07-01T06:11:25;100102.41;;;28.46;100.00
59608;BME280;45426;44.726;10.390;2022-07-01T06:13:50;100101.59;;;30.87;100.00
59608;BME280;45426;44.726;10.390;2022-07-01T06:16:16;100109.44;;;30.44;100.00
59608;BME280;45426;44.726;10.390;2022-07-01T06:18:41;100114.47;;;31.47;100.00
59608;BME280;45426;44.726;10.390;2022-07-01T06:21:06;100115.41;;;30.75;100.00
59608;BME280;45426;44.726;10.390;2022-07-01T06:23:32;100115.13;;;31.12;100.00
59608;BME280;45426;44.726;10.390;2022-07-01T06:25:57;100117.16;;;30.88;100.00
59608;BME280;45426;44.726;10.390;2022-07-01T06:28:23;100116.47;;;30.30;100.00
59608;BME280;45426;44.726;10.390;2022-07-01T06:30:51;100114.75;;;29.66;100.00
59608;BME280;45426;44.726;10.390;2022-07-01T06:33:19;100113.78;;;29.87;100.00
59608;BME280;45426;44.726;10.390;2022-07-01T06:35:45;100114.13;;;31.01;100.00
59608;BME280;45426;44.726;10.390;2022-07-01T06:38:10;100128.22;;;31.96;100.00
59608;BME280;45426;44.726;10.390;2022-07-01T06:40:35;100122.75;;;33.94;100.00
59608;BME280;45426;44.726;10.390;2022-07-01T06:43:01;100132.31;;;34.56;87.49
59608;BME280;45426;44.726;10.390;2022-07-01T06:45:27;100124.59;;;35.45;77.94
59608;BME280;45426;44.726;10.390;2022-07-01T06:47:52;100124.53;;;35.17;89.95
59608;BME280;45426;44.726;10.390;2022-07-01T06:50:17;100124.72;;;36.96;78.86
59608;BME280;45426;44.726;10.390;2022-07-01T06:52:43;100121.34;;;37.94;65.73
59608;BME280;45426;44.726;10.390;2022-07-01T06:55:08;100120.88;;;37.90;58.72
59608;BME280;45426;44.726;10.390;2022-07-01T06:57:34;100134.69;;;37.03;62.20
59608;BME280;45426;44.726;10.390;2022-07-01T06:59:59;100134.03;;;36.85;55.49
59608;BME280;45426;44.726;10.390;2022-07-01T07:02:24;100134.63;;;39.89;41.84
59608;BME280;45426;44.726;10.390;2022-07-01T07:04:50;100140.91;;;40.14;40.39
59608;BME280;45426;44.726;10.390;2022-07-01T07:07:15;100137.75;;;40.79;39.71
59608;BME280;45426;44.726;10.390;2022-07-01T07:09:41;100133.88;;;39.43;41.27
59608;BME280;45426;44.726;10.390;2022-07-01T07:12:07;100134.06;;;39.77;35.87
59608;BME280;45426;44.726;10.390;2022-07-01T07:14:33;100134.41;;;40.54;38.34
59608;BME280;45426;44.726;10.390;2022-07-01T07:16:58;100137.41;;;40.83;36.59
59608;BME280;45426;44.726;10.390;2022-07-01T07:19:23;100136.31;;;40.86;38.92
59608;BME280;45426;44.726;10.390;2022-07-01T07:21:49;100142.25;;;41.43;36.01
59608;BME280;45426;44.726;10.390;2022-07-01T07:24:14;100143.94;;;41.88;36.37
59608;BME280;45426;44.726;10.390;2022-07-01T07:26:40;100160.16;;;41.73;35.67
59608;BME280;45426;44.726;10.390;2022-07-01T07:29:05;100160.69;;;43.01;33.34
59608;BME280;45426;44.726;10.390;2022-07-01T07:31:30;100169.00;;;38.70;40.68
59608;BME280;45426;44.726;10.390;2022-07-01T07:33:56;100175.34;;;39.33;42.92
59608;BME280;45426;44.726;10.390;2022-07-01T07:36:21;100172.28;;;40.22;39.17
59608;BME280;45426;44.726;10.390;2022-07-01T07:38:47;100169.34;;;40.14;41.24
59608;BME280;45426;44.726;10.390;2022-07-01T07:41:12;100168.06;;;38.80;44.81
59608;BME280;45426;44.726;10.390;2022-07-01T07:43:38;100167.38;;;35.10;58.76
59608;BME280;45426;44.726;10.390;2022-07-01T07:46:03;100166.66;;;33.74;69.86
59608;BME280;45426;44.726;10.390;2022-07-01T07:48:30;100160.28;;;33.79;74.61
59608;BME280;45426;44.726;10.390;2022-07-01T07:50:55;100166.13;;;34.08;71.49
59608;BME280;45426;44.726;10.390;2022-07-01T07:53:21;100170.25;;;34.12;58.88
59608;BME280;45426;44.726;10.390;2022-07-01T07:55:46;100167.28;;;34.21;63.19
59608;BME280;45426;44.726;10.390;2022-07-01T07:58:11;100162.78;;;33.72;60.52
59608;BME280;45426;44.726;10.390;2022-07-01T08:00:37;100159.53;;;33.79;75.42
59608;BME280;45426;44.726;10.390;2022-07-01T08:03:03;100154.94;;;33.81;86.64
59608;BME280;45426;44.726;10.390;2022-07-01T08:05:28;100162.59;;;33.81;72.87
59608;BME280;45426;44.726;10.390;2022-07-01T08:07:54;100167.13;;;33.15;72.99
59608;BME280;45426;44.726;10.390;2022-07-01T08:10:19;100166.00;;;32.86;83.23
59608;BME280;45426;44.726;10.390;2022-07-01T08:12:44;100173.53;;;32.18;90.25
59608;BME280;45426;44.726;10.390;2022-07-01T08:15:10;100180.25;;;32.06;100.00
59608;BME280;45426;44.726;10.390;2022-07-01T08:17:35;100169.41;;;31.99;100.00
59608;BME280;45426;44.726;10.390;2022-07-01T08:20:01;100166.91;;;31.86;98.28
59608;BME280;45426;44.726;10.390;2022-07-01T08:22:27;100173.56;;;31.88;100.00
59608;BME280;45426;44.726;10.390;2022-07-01T08:24:52;100166.22;;;31.91;100.00
59608;BME280;45426;44.726;10.390;2022-07-01T08:27:18;100169.06;;;31.76;100.00
59608;BME280;45426;44.726;10.390;2022-07-01T08:29:43;100175.72;;;31.64;100.00
59608;BME280;45426;44.726;10.390;2022-07-01T08:32:09;100180.66;;;31.69;100.00
59608;BME280;45426;44.726;10.390;2022-07-01T08:34:35;100183.72;;;31.41;100.00
59608;BME280;45426;44.726;10.390;2022-07-01T08:37:02;100197.03;;;31.56;100.00
59608;BME280;45426;44.726;10.390;2022-07-01T08:39:28;100207.84;;;31.63;100.00
59608;BME280;45426;44.726;10.390;2022-07-01T08:41:54;100209.06;;;31.32;100.00
59608;BME280;45426;44.726;10.390;2022-07-01T08:44:20;100208.38;;;31.22;100.00
59608;BME280;45426;44.726;10.390;2022-07-01T08:46:45;100207.31;;;31.34;100.00
59608;BME280;45426;44.726;10.390;2022-07-01T08:49:12;100205.84;;;31.78;100.00
59608;BME280;45426;44.726;10.390;2022-07-01T08:51:38;100209.22;;;32.12;100.00
59608;BME280;45426;44.726;10.390;2022-07-01T08:54:04;100214.09;;;32.32;100.00
59608;BME280;45426;44.726;10.390;2022-07-01T08:56:29;100216.84;;;32.62;100.00
59608;BME280;45426;44.726;10.390;2022-07-01T08:59:10;100214.75;;;32.77;100.00
59608;BME280;45426;44.726;10.390;2022-07-01T09:01:36;100206.88;;;33.22;100.00
59608;BME280;45426;44.726;10.390;2022-07-01T09:04:18;100209.88;;;33.19;100.00
59608;BME280;45426;44.726;10.390;2022-07-01T09:06:46;100208.72;;;33.57;100.00
59608;BME280;45426;44.726;10.390;2022-07-01T09:09:19;100207.25;;;32.18;100.00
59608;BME280;45426;44.726;10.390;2022-07-01T09:11:52;100205.94;;;32.90;100.00
59608;BME280;45426;44.726;10.390;2022-07-01T09:14:23;100200.91;;;33.41;100.00
59608;BME280;45426;44.726;10.390;2022-07-01T09:16:51;100205.63;;;33.08;100.00
59608;BME280;45426;44.726;10.390;2022-07-01T09:19:19;100202.50;;;33.21;100.00
59608;BME280;45426;44.726;10.390;2022-07-01T09:21:49;100189.44;;;33.44;100.00
59608;BME280;45426;44.726;10.390;2022-07-01T09:24:24;100194.97;;;32.16;100.00
59608;BME280;45426;44.726;10.390;2022-07-01T09:26:57;100195.41;;;33.05;100.00
59608;BME280;45426;44.726;10.390;2022-07-01T09:29:31;100185.97;;;33.61;100.00
59608;BME280;45426;44.726;10.390;2022-07-01T09:32:01;100179.50;;;33.02;100.00
59608;BME280;45426;44.726;10.390;2022-07-01T09:34:41;100184.72;;;33.36;100.00
59608;BME280;45426;44.726;10.390;2022-07-01T09:37:07;100182.97;;;33.64;100.00
59608;BME280;45426;44.726;10.390;2022-07-01T09:39:50;100183.88;;;32.62;94.99
59608;BME280;45426;44.726;10.390;2022-07-01T09:42:17;100183.13;;;33.87;100.00
59608;BME280;45426;44.726;10.390;2022-07-01T09:45:04;100193.13;;;34.20;97.45
59608;BME280;45426;44.726;10.390;2022-07-01T09:47:38;100185.06;;;33.70;97.18
59608;BME280;45426;44.726;10.390;2022-07-01T09:50:05;100191.00;;;33.77;98.80
59608;BME280;45426;44.726;10.390;2022-07-01T09:52:31;100194.00;;;33.42;90.42
59608;BME280;45426;44.726;10.390;2022-07-01T09:54:56;100194.66;;;33.31;90.04
59608;BME280;45426;44.726;10.390;2022-07-01T09:57:22;100193.84;;;33.04;91.36
59608;BME280;45426;44.726;10.390;2022-07-01T09:59:49;100196.31;;;33.43;90.31
59608;BME280;45426;44.726;10.390;2022-07-01T10:02:19;100197.75;;;33.86;100.00
59608;BME280;45426;44.726;10.390;2022-07-01T10:04:53;100195.19;;;33.88;100.00
59608;BME280;45426;44.726;10.390;2022-07-01T10:10:45;100198.75;;;33.30;89.72
59608;BME280;45426;44.726;10.390;2022-07-01T10:13:16;100201.06;;;33.58;96.12
59608;BME280;45426;44.726;10.390;2022-07-01T10:15:43;100188.63;;;34.02;100.00
59608;BME280;45426;44.726;10.390;2022-07-01T10:18:36;100194.69;;;34.27;95.99
59608;BME280;45426;44.726;10.390;2022-07-01T10:21:02;100199.28;;;33.87;94.36
59608;BME280;45426;44.726;10.390;2022-07-01T10:23:37;100189.94;;;34.44;96.44
59608;BME280;45426;44.726;10.390;2022-07-01T10:26:04;100184.84;;;34.48;100.00
59608;BME280;45426;44.726;10.390;2022-07-01T10:31:15;100189.19;;;33.74;79.57
59608;BME280;45426;44.726;10.390;2022-07-01T10:44:06;100187.03;;;34.76;93.51
59608;BME280;45426;44.726;10.390;2022-07-01T10:46:56;100186.56;;;34.83;93.38
59608;BME280;45426;44.726;10.390;2022-07-01T10:52:04;100187.13;;;34.44;96.42
59608;BME280;45426;44.726;10.390;2022-07-01T10:57:19;100182.97;;;33.64;82.24
59608;BME280;45426;44.726;10.390;2022-07-01T11:02:22;100172.28;;;33.74;90.06
59608;BME280;45426;44.726;10.390;2022-07-01T11:04:49;100185.38;;;33.51;87.35
59608;BME280;45426;44.726;10.390;2022-07-01T11:07:15;100180.19;;;33.44;88.08
59608;BME280;45426;44.726;10.390;2022-07-01T11:09:41;100179.16;;;33.68;100.00
59608;BME280;45426;44.726;10.390;2022-07-01T11:12:07;100178.94;;;33.71;99.29
59608;BME280;45426;44.726;10.390;2022-07-01T11:14:40;100174.84;;;34.10;99.44
59608;BME280;45426;44.726;10.390;2022-07-01T11:17:07;100174.34;;;34.54;93.96
59608;BME280;45426;44.726;10.390;2022-07-01T11:19:33;100168.56;;;34.80;100.00
59608;BME280;45426;44.726;10.390;2022-07-01T11:21:59;100175.00;;;34.81;100.00
59608;BME280;45426;44.726;10.390;2022-07-01T11:24:24;100179.31;;;34.71;97.30
59608;BME280;45426;44.726;10.390;2022-07-01T11:26:50;100176.53;;;34.82;100.00
59608;BME280;45426;44.726;10.390;2022-07-01T11:29:27;100181.16;;;34.79;100.00
59608;BME280;45426;44.726;10.390;2022-07-01T11:31:53;100178.38;;;34.96;95.55
59608;BME280;45426;44.726;10.390;2022-07-01T11:34:20;100172.75;;;34.42;94.68
59608;BME280;45426;44.726;10.390;2022-07-01T11:36:47;100177.66;;;35.02;100.00
59608;BME280;45426;44.726;10.390;2022-07-01T11:39:33;100174.81;;;34.47;87.15
59608;BME280;45426;44.726;10.390;2022-07-01T11:42:03;100156.91;;;35.27;92.24
59608;BME280;45426;44.726;10.390;2022-07-01T11:44:37;100166.19;;;35.39;100.00
59608;BME280;45426;44.726;10.390;2022-07-01T11:47:04;100171.28;;;35.18;98.60
59608;BME280;45426;44.726;10.390;2022-07-01T11:49:30;100166.22;;;34.68;100.00
59608;BME280;45426;44.726;10.390;2022-07-01T11:54:24;100156.06;;;34.93;85.49
59608;BME280;45426;44.726;10.390;2022-07-01T11:56:50;100156.03;;;33.90;89.08
59608;BME280;45426;44.726;10.390;2022-07-01T11:59:16;100150.91;;;33.10;86.59
59608;BME280;45426;44.726;10.390;2022-07-01T12:01:41;100144.91;;;34.12;100.00
59608;BME280;45426;44.726;10.390;2022-07-01T12:04:08;100148.63;;;34.35;83.95
59608;BME280;45426;44.726;10.390;2022-07-01T12:06:35;100136.84;;;34.37;90.61
59608;BME280;45426;44.726;10.390;2022-07-01T12:09:04;100136.31;;;34.98;88.19
59608;BME280;45426;44.726;10.390;2022-07-01T12:11:30;100142.25;;;34.40;85.64
59608;BME280;45426;44.726;10.390;2022-07-01T12:13:56;100134.75;;;33.89;86.47
59608;BME280;45426;44.726;10.390;2022-07-01T12:16:22;100133.69;;;34.78;97.56
59608;BME280;45426;44.726;10.390;2022-07-01T12:18:58;100135.03;;;33.96;94.27
59608;BME280;45426;44.726;10.390;2022-07-01T12:21:26;100122.03;;;33.99;89.49
59608;BME280;45426;44.726;10.390;2022-07-01T12:24:05;100128.16;;;35.29;96.11
59608;BME280;45426;44.726;10.390;2022-07-01T12:26:31;100135.19;;;34.68;81.38
59608;BME280;45426;44.726;10.390;2022-07-01T12:28:56;100130.41;;;34.31;87.17
59608;BME280;45426;44.726;10.390;2022-07-01T12:31:22;100136.28;;;33.58;82.81
59608;BME280;45426;44.726;10.390;2022-07-01T12:33:51;100133.28;;;33.99;77.46
59608;BME280;45426;44.726;10.390;2022-07-01T12:36:17;100119.13;;;34.25;80.28
59608;BME280;45426;44.726;10.390;2022-07-01T12:38:43;100124.97;;;33.52;82.72
59608;BME280;45426;44.726;10.390;2022-07-01T12:41:28;100124.28;;;33.95;76.90
59608;BME280;45426;44.726;10.390;2022-07-01T12:43:54;100124.53;;;33.59;80.07
59608;BME280;45426;44.726;10.390;2022-07-01T12:46:30;100121.81;;;34.08;78.26
59608;BME280;45426;44.726;10.390;2022-07-01T12:48:57;100119.53;;;34.12;76.98
59608;BME280;45426;44.726;10.390;2022-07-01T12:51:32;100116.31;;;34.31;84.04
59608;BME280;45426;44.726;10.390;2022-07-01T12:53:58;100116.13;;;35.28;88.69
59608;BME280;45426;44.726;10.390;2022-07-01T12:56:26;100107.38;;;35.60;98.01
59608;BME280;45426;44.726;10.390;2022-07-01T12:58:53;100117.13;;;35.76;100.00